Lowell, Massachusetts
Current Conditions -  °F | °C
As of 11:54 AM on Saturday 25 Oct 2014 (Local Time) from KLWM Reporting Station
Clear Clear  
Wind Chill: 60°   Ceiling: Unl
Heat Index: 60°   Visibility: 10mi
Dew Point: 40°   Wind: 9mph
Humidity: 47%   Direction: 290°WNW
Pressure: 29.7"   Gusts: NA
Location:  42.65°N, 71.31°W
Report Text: KLWM 251554Z 29008KT 10SM CLR 16/04 A2970 RMK AO2 SLP056 T01560044
Loading
Personal Weather Stations






























Interactive Weather Map
Tropical Storm Tracking
New forecast layout! Learn more

10-Day Weather Forecast

Advertisements
Track Severe Weather on mobile